EDT,Max TemperatureF,Mean TemperatureF,Min TemperatureF,Max Dew PointF,MeanDew PointF,Min DewpointF,Max Humidity, Mean Humidity, Min Humidity, Max Sea Level PressureIn, Mean Sea Level PressureIn, Min Sea Level PressureIn, Max VisibilityMiles, Mean VisibilityMiles, Min VisibilityMiles, Max Wind SpeedMPH, Mean Wind SpeedMPH, Max Gust SpeedMPH,PrecipitationIn, CloudCover, Events, WindDirDegrees
2014-4-1,80,67,53,61,56,50,93,72,39,30.18,30.14,30.10,10,10,8,15,6,18,0.00,0,,15
2014-4-2,79,69,59,62,59,55,90,75,45,30.19,30.14,30.11,10,10,10,14,7,16,0.00,0,,167
2014-4-3,79,70,60,63,60,58,90,74,54,30.14,30.09,30.04,10,10,10,20,9,24,0.00,0,,167
2014-4-4,81,71,60,66,63,59,97,76,54,30.06,30.03,30.01,10,10,10,21,8,24,0.00,0,,181
2014-4-5,80,70,59,67,63,58,100,85,58,30.05,30.01,29.97,10,6,0,12,5,15,0.00,1,Fog,189
2014-4-6,82,73,63,67,64,61,93,78,54,30.03,29.97,29.94,10,10,6,22,8,28,0.00,0,,167
2014-4-7,84,75,66,72,68,64,93,78,51,29.95,29.88,29.83,10,10,10,29,16,38,0.00,2,,165
2014-4-8,78,73,68,73,68,53,94,84,57,29.91,29.80,29.75,10,8,1,30,18,36,0.64,6,Rain-Thunderstorm,228
2014-4-9,72,65,58,54,52,46,78,60,44,30.18,30.04,29.90,10,10,10,28,14,35,0.01,2,Rain,315
2014-4-10,80,68,55,55,51,45,86,61,32,30.27,30.22,30.18,10,10,10,14,7,21,0.00,1,,50
2014-4-11,83,70,57,64,57,51,80,64,42,30.24,30.18,30.11,10,10,10,16,8,20,0.00,1,,74
2014-4-12,85,75,64,67,63,55,93,72,43,30.17,30.12,30.06,10,10,10,16,9,21,0.00,2,,89
2014-4-13,87,75,63,68,62,58,93,71,43,30.12,30.06,29.99,10,10,10,20,9,25,T,3,,89
2014-4-14,83,76,69,70,68,65,97,81,63,30.02,29.95,29.89,10,10,10,17,9,21,0.00,3,,152
2014-4-15,83,74,64,73,69,59,97,84,78,29.97,29.88,29.82,10,10,7,25,15,32,0.02,6,Rain,210
2014-4-16,79,67,55,60,54,48,86,68,50,30.12,30.04,29.96,10,10,10,21,12,25,0.00,3,,46
2014-4-17,87,75,63,68,64,58,90,75,55,30.14,30.09,30.06,10,10,5,28,14,35,0.11,4,Rain,75
2014-4-18,81,74,67,71,68,65,93,87,69,30.10,30.00,29.91,10,9,1,26,10,35,0.46,6,Rain-Thunderstorm,143
2014-4-19,74,69,64,70,61,56,87,74,61,30.00,29.95,29.88,10,10,10,22,14,27,T,7,Rain,288
2014-4-20,75,68,60,61,59,58,97,77,54,30.07,30.03,29.97,10,10,10,17,8,20,0.00,6,,350
2014-4-21,76,68,60,60,57,55,90,73,54,30.09,30.03,29.96,10,10,10,13,6,17,0.00,6,,26
2014-4-22,77,67,57,62,59,57,100,76,60,29.99,29.94,29.88,10,10,6,16,6,19,0.00,3,,301
2014-4-23,77,71,64,64,62,60,87,76,64,29.97,29.93,29.89,10,10,10,15,8,19,0.00,2,,294
2014-4-24,79,70,61,66,63,60,100,83,58,30.03,29.97,29.93,10,7,0,15,6,19,0.00,0,Fog,296
2014-4-25,80,72,63,67,65,63,93,81,62,30.03,29.98,29.95,10,8,2,15,6,17,0.00,1,,272
2014-4-26,86,76,65,69,66,62,93,74,51,30.03,29.99,29.94,10,10,10,20,7,26,0.00,0,,325
2014-4-27,85,76,67,71,68,64,93,76,51,30.01,29.96,29.92,10,10,8,16,8,22,0.00,0,,169
2014-4-28,89,80,70,72,70,66,93,75,50,29.97,29.92,29.88,10,10,10,22,9,27,0.00,0,,165
2014-4-29,89,81,72,74,71,68,93,77,55,29.98,29.91,29.86,10,10,10,21,11,28,0.00,1,,148
2014-4-30,88,81,73,74,71,68,93,76,59,30.04,30.00,29.93,10,10,10,20,10,24,0.00,2,,137